Time;durP1;ratioP1;P1;durP2;ratioP2;P2;SDS_P1;SDS_P2;PMS_P1;PMS_P2;Temp;Humidity;BMP_temperature;BMP_pressure;BME280_temperature;BME280_humidity;BME280_pressure;Samples;Min_cycle;Max_cycle;Signal;HPM_P1;HPM_P2
2020/12/10 00:00:20;;;;;;;56.58;31.70;;;4.20;99.90;;;;;;5017968;28;20222;-83
2020/12/10 00:02:46;;;;;;;67.22;33.05;;;4.10;99.90;;;;;;5018093;28;20205;-82
2020/12/10 00:05:15;;;;;;;68.03;34.63;;;4.20;99.90;;;;;;5017946;28;20208;-84
2020/12/10 00:07:41;;;;;;;60.78;32.80;;;4.20;99.90;;;;;;5011538;28;20234;-83
2020/12/10 00:10:09;;;;;;;63.72;31.63;;;4.20;99.90;;;;;;5015624;28;20260;-84
2020/12/10 00:12:40;;;;;;;58.33;33.50;;;4.30;99.90;;;;;;5008423;28;20604;-85
2020/12/10 00:15:07;;;;;;;59.38;31.15;;;4.40;99.90;;;;;;5005396;28;20220;-85
2020/12/10 00:17:34;;;;;;;57.20;29.60;;;4.40;99.90;;;;;;5004771;28;20575;-83
2020/12/10 00:20:01;;;;;;;64.30;33.08;;;4.40;99.90;;;;;;5004215;28;20226;-84
2020/12/10 00:22:33;;;;;;;58.15;32.50;;;4.30;99.90;;;;;;5004254;28;20285;-84
2020/12/10 00:25:00;;;;;;;53.33;30.60;;;4.40;99.90;;;;;;5005551;28;20190;-84
2020/12/10 00:27:28;;;;;;;70.53;33.22;;;4.40;99.90;;;;;;5009085;28;20848;-83
2020/12/10 00:29:57;;;;;;;56.80;31.08;;;4.50;99.90;;;;;;5004320;28;20741;-85
2020/12/10 00:32:25;;;;;;;67.40;32.65;;;4.50;99.90;;;;;;5004479;28;20213;-84
2020/12/10 00:34:55;;;;;;;54.63;30.23;;;4.40;99.90;;;;;;5005197;28;20209;-85
2020/12/10 00:37:22;;;;;;;68.00;35.47;;;4.40;99.90;;;;;;5017844;28;20193;-83
2020/12/10 00:39:50;;;;;;;65.30;33.53;;;4.40;99.90;;;;;;5018046;28;20217;-82
2020/12/10 00:42:16;;;;;;;68.70;33.33;;;4.40;99.90;;;;;;5018260;28;20221;-82
2020/12/10 00:44:43;;;;;;;63.83;32.63;;;4.40;99.90;;;;;;5018089;28;20190;-83
2020/12/10 00:47:10;;;;;;;58.42;33.38;;;4.40;99.90;;;;;;5017868;28;20213;-84
2020/12/10 00:49:37;;;;;;;55.95;32.92;;;4.50;99.90;;;;;;5017568;28;20210;-83
2020/12/10 00:52:03;;;;;;;62.88;32.42;;;4.50;99.90;;;;;;5013428;28;20221;-85
2020/12/10 00:54:30;;;;;;;57.97;34.90;;;4.50;99.90;;;;;;4985281;28;20213;-85
2020/12/10 00:56:58;;;;;;;65.65;35.92;;;4.50;99.90;;;;;;5001866;28;20205;-86
2020/12/10 00:59:25;;;;;;;65.22;33.42;;;4.30;99.90;;;;;;5001952;28;20225;-84
2020/12/10 01:01:51;;;;;;;62.15;33.00;;;4.30;99.90;;;;;;5001607;28;20210;-84
2020/12/10 01:04:18;;;;;;;67.97;34.55;;;4.20;99.90;;;;;;5002128;28;20274;-83
2020/12/10 01:06:45;;;;;;;69.53;35.40;;;4.30;99.90;;;;;;5006087;28;20213;-84
2020/12/10 01:09:12;;;;;;;63.00;31.63;;;4.40;99.90;;;;;;5003035;28;20225;-84
2020/12/10 01:11:41;;;;;;;67.20;35.25;;;4.40;99.90;;;;;;5002449;28;20220;-84
2020/12/10 01:14:08;;;;;;;66.32;34.83;;;4.40;99.90;;;;;;5001991;28;20218;-84
2020/12/10 01:16:35;;;;;;;67.53;31.77;;;4.40;99.90;;;;;;5001930;28;20270;-84
2020/12/10 01:19:02;;;;;;;66.40;37.60;;;4.40;99.90;;;;;;5001809;28;20212;-84
2020/12/10 01:21:36;;;;;;;63.40;32.70;;;4.50;99.90;;;;;;5002505;28;20575;-83
2020/12/10 01:24:04;;;;;;;65.80;35.10;;;4.50;99.90;;;;;;5002026;28;20426;-84
2020/12/10 01:26:33;;;;;;;64.88;34.53;;;4.50;99.90;;;;;;5001964;28;20217;-84
2020/12/10 01:29:00;;;;;;;65.30;32.40;;;4.50;99.90;;;;;;5001629;28;20308;-84
2020/12/10 01:31:28;;;;;;;57.60;33.35;;;4.50;99.90;;;;;;5001224;28;20194;-85
2020/12/10 01:33:55;;;;;;;65.65;35.88;;;4.60;99.90;;;;;;5001659;28;20248;-83
2020/12/10 01:36:24;;;;;;;64.10;35.25;;;4.60;99.90;;;;;;5001754;28;20575;-84
2020/12/10 01:38:51;;;;;;;59.80;32.42;;;4.60;99.90;;;;;;5001478;28;20192;-84
2020/12/10 01:41:19;;;;;;;65.50;34.22;;;4.60;99.90;;;;;;5002323;28;20233;-83
2020/12/10 01:43:47;;;;;;;61.75;31.83;;;4.70;99.90;;;;;;5004267;28;20201;-83
2020/12/10 01:46:14;;;;;;;65.25;34.53;;;4.80;99.90;;;;;;5004821;28;20284;-84
2020/12/10 01:48:43;;;;;;;60.45;35.33;;;4.70;99.90;;;;;;5004256;28;20231;-84
2020/12/10 01:51:09;;;;;;;65.10;36.15;;;4.80;99.90;;;;;;5005243;28;20213;-84
2020/12/10 01:53:36;;;;;;;68.35;35.55;;;4.80;99.90;;;;;;5004865;28;20221;-84
2020/12/10 01:56:05;;;;;;;55.42;31.55;;;4.70;99.90;;;;;;5005503;28;20308;-84
2020/12/10 01:58:32;;;;;;;72.82;38.38;;;4.70;99.90;;;;;;5004174;28;20224;-84
2020/12/10 02:00:58;;;;;;;65.97;36.08;;;4.70;99.90;;;;;;5004710;28;20229;-84
2020/12/10 02:03:25;;;;;;;64.10;35.25;;;4.60;99.90;;;;;;5004368;28;20240;-83
2020/12/10 02:05:52;;;;;;;61.15;31.50;;;4.60;99.90;;;;;;5004630;28;20193;-82
2020/12/10 02:08:19;;;;;;;67.32;36.15;;;4.60;99.90;;;;;;5004157;28;20276;-83
2020/12/10 02:10:49;;;;;;;63.08;33.38;;;4.60;99.90;;;;;;5005354;28;20320;-84
2020/12/10 02:13:15;;;;;;;67.43;35.88;;;4.60;99.90;;;;;;5007895;28;20202;-84
2020/12/10 02:15:47;;;;;;;63.97;36.00;;;4.50;99.90;;;;;;5004026;28;20209;-83
2020/12/10 02:18:17;;;;;;;72.80;35.90;;;4.50;99.90;;;;;;5004180;28;20213;-83
2020/12/10 02:20:45;;;;;;;71.22;35.30;;;4.50;99.90;;;;;;5003871;28;20244;-83
2020/12/10 02:23:13;;;;;;;60.72;32.58;;;4.50;99.90;;;;;;5003967;28;20621;-84
2020/12/10 02:25:40;;;;;;;64.40;36.05;;;4.60;99.90;;;;;;5003376;28;20201;-84
2020/12/10 02:28:11;;;;;;;71.25;37.67;;;4.60;99.90;;;;;;5003900;28;20212;-84
2020/12/10 02:30:38;;;;;;;78.97;37.20;;;4.50;99.90;;;;;;5006710;28;20234;-84
2020/12/10 02:33:06;;;;;;;67.70;35.05;;;4.50;99.90;;;;;;5008484;28;20229;-82
2020/12/10 02:35:34;;;;;;;73.30;37.05;;;4.50;99.90;;;;;;5016146;28;20202;-83
2020/12/10 02:38:07;;;;;;;68.97;37.33;;;4.50;99.90;;;;;;5006320;28;20606;-83
2020/12/10 02:40:36;;;;;;;71.80;37.00;;;4.50;99.90;;;;;;5004628;28;20236;-84
2020/12/10 02:43:03;;;;;;;59.75;32.25;;;4.50;99.90;;;;;;5002768;28;20225;-84
2020/12/10 02:45:31;;;;;;;67.60;35.55;;;4.50;99.90;;;;;;5002338;28;20202;-83
2020/12/10 02:47:58;;;;;;;77.22;40.05;;;4.50;99.90;;;;;;5003345;28;20264;-84
2020/12/10 02:50:25;;;;;;;67.00;33.47;;;4.50;99.90;;;;;;5003092;28;20216;-84
2020/12/10 02:52:52;;;;;;;65.88;35.85;;;4.50;99.90;;;;;;5002313;28;20209;-84
2020/12/10 02:55:19;;;;;;;63.53;32.92;;;4.50;99.90;;;;;;5003477;28;20911;-84
2020/12/10 02:57:50;;;;;;;63.13;34.22;;;4.50;99.90;;;;;;5002882;28;20638;-84
2020/12/10 03:00:16;;;;;;;53.17;30.40;;;4.50;99.90;;;;;;5003183;28;20335;-83
2020/12/10 03:02:43;;;;;;;75.50;36.83;;;4.60;99.90;;;;;;5003313;28;20221;-84
2020/12/10 03:05:10;;;;;;;68.18;36.22;;;4.60;99.90;;;;;;5003672;28;20697;-84
2020/12/10 03:07:36;;;;;;;68.90;37.15;;;4.60;99.90;;;;;;5003568;28;20208;-83
2020/12/10 03:10:04;;;;;;;77.05;38.72;;;4.60;99.90;;;;;;5003589;28;20332;-84
2020/12/10 03:12:32;;;;;;;78.28;38.67;;;4.50;99.90;;;;;;5003640;28;20213;-84
2020/12/10 03:15:00;;;;;;;74.60;37.28;;;4.40;99.90;;;;;;5003247;28;20229;-84
2020/12/10 03:17:26;;;;;;;65.15;37.50;;;4.50;99.90;;;;;;5004662;28;20213;-83
2020/12/10 03:19:53;;;;;;;62.42;30.63;;;4.50;99.90;;;;;;5004147;28;20225;-83
2020/12/10 03:22:20;;;;;;;66.97;36.15;;;4.50;99.90;;;;;;5003707;28;20213;-83
2020/12/10 03:24:46;;;;;;;64.88;34.30;;;4.50;99.90;;;;;;5004013;28;20201;-83
2020/12/10 03:27:13;;;;;;;73.80;42.30;;;4.50;99.90;;;;;;5002547;28;20229;-83
2020/12/10 03:29:40;;;;;;;77.13;36.20;;;4.60;99.90;;;;;;5005088;28;20265;-83
2020/12/10 03:32:08;;;;;;;71.70;36.85;;;4.50;99.90;;;;;;5005946;28;20212;-83
2020/12/10 03:34:34;;;;;;;66.45;36.20;;;4.50;99.90;;;;;;5005945;28;20210;-83
2020/12/10 03:37:03;;;;;;;70.90;37.78;;;4.50;99.90;;;;;;5006521;28;20201;-83
2020/12/10 03:39:30;;;;;;;61.55;34.83;;;4.60;99.90;;;;;;5005212;28;20256;-83
2020/12/10 03:41:58;;;;;;;69.40;36.65;;;4.70;99.90;;;;;;5003529;28;20208;-82
2020/12/10 03:44:25;;;;;;;71.10;35.13;;;4.70;99.90;;;;;;5002295;28;20589;-82
2020/12/10 03:46:52;;;;;;;68.53;36.85;;;4.60;99.90;;;;;;5002914;28;20264;-83
2020/12/10 03:49:20;;;;;;;81.50;37.33;;;4.50;99.90;;;;;;5002400;28;20652;-82
2020/12/10 03:51:46;;;;;;;80.07;38.95;;;4.50;99.90;;;;;;5002594;28;20577;-82
2020/12/10 03:54:13;;;;;;;80.25;36.03;;;4.40;99.90;;;;;;5002064;28;20206;-83
2020/12/10 03:56:40;;;;;;;71.88;38.45;;;4.40;99.90;;;;;;5002600;28;20209;-84
2020/12/10 03:59:06;;;;;;;72.90;36.80;;;4.50;99.90;;;;;;5002525;28;20232;-83
2020/12/10 04:01:34;;;;;;;79.40;40.50;;;4.50;99.90;;;;;;5003291;28;20213;-83
2020/12/10 04:04:00;;;;;;;65.90;36.55;;;4.40;99.90;;;;;;5003314;28;20232;-82
2020/12/10 04:06:28;;;;;;;75.22;37.58;;;4.50;99.90;;;;;;5003518;28;20212;-83
2020/12/10 04:08:55;;;;;;;77.57;40.70;;;4.50;99.90;;;;;;5004165;28;20217;-83
2020/12/10 04:11:23;;;;;;;77.63;37.97;;;4.50;99.90;;;;;;5009420;28;20209;-83
2020/12/10 04:13:49;;;;;;;97.13;42.92;;;4.50;99.90;;;;;;5011941;28;20209;-82
2020/12/10 04:16:16;;;;;;;80.38;41.10;;;4.50;99.90;;;;;;5010949;28;20197;-83
2020/12/10 04:18:43;;;;;;;81.10;39.95;;;4.40;99.90;;;;;;5006171;28;20252;-83
2020/12/10 04:21:11;;;;;;;79.80;40.22;;;4.40;99.90;;;;;;5001093;28;20205;-83
2020/12/10 04:23:39;;;;;;;85.85;43.53;;;4.40;99.90;;;;;;5001297;28;20225;-82
2020/12/10 04:26:06;;;;;;;89.95;41.58;;;4.40;99.90;;;;;;5000808;28;20271;-83
2020/12/10 04:28:33;;;;;;;85.43;39.78;;;4.40;99.90;;;;;;5000965;28;20297;-83
2020/12/10 04:30:59;;;;;;;85.03;41.33;;;4.40;99.90;;;;;;5002120;28;20234;-83
2020/12/10 04:33:26;;;;;;;98.88;41.70;;;4.50;99.90;;;;;;5000931;28;20255;-83
2020/12/10 04:35:53;;;;;;;90.47;42.00;;;4.50;99.90;;;;;;5000699;28;20189;-83
2020/12/10 04:38:20;;;;;;;76.35;40.72;;;4.40;99.90;;;;;;5001292;28;20233;-83
2020/12/10 04:40:47;;;;;;;106.20;44.00;;;4.60;99.90;;;;;;5008965;28;20229;-82
2020/12/10 04:43:15;;;;;;;102.13;43.30;;;4.50;99.90;;;;;;5013299;28;20225;-84
2020/12/10 04:45:42;;;;;;;84.00;40.30;;;4.50;99.90;;;;;;5017958;28;20188;-83
2020/12/10 04:48:09;;;;;;;100.55;42.63;;;4.50;99.90;;;;;;5017661;28;20186;-83
2020/12/10 04:50:38;;;;;;;88.32;45.85;;;4.50;99.90;;;;;;5017477;28;20209;-83
2020/12/10 04:53:05;;;;;;;74.15;41.65;;;4.50;99.90;;;;;;5016755;28;20296;-83
2020/12/10 04:55:32;;;;;;;86.13;40.47;;;4.60;99.90;;;;;;5012724;28;20200;-83
2020/12/10 04:58:00;;;;;;;96.35;42.55;;;4.60;99.90;;;;;;5012562;28;20212;-83
2020/12/10 05:00:28;;;;;;;100.95;45.03;;;4.50;99.90;;;;;;5011498;28;20225;-83
2020/12/10 05:02:56;;;;;;;87.03;41.17;;;4.50;99.90;;;;;;5012455;28;20256;-83
2020/12/10 05:05:27;;;;;;;101.97;42.13;;;4.50;99.90;;;;;;5012829;28;20265;-83
2020/12/10 05:07:54;;;;;;;103.88;42.00;;;4.50;99.90;;;;;;5011266;28;20206;-83
2020/12/10 05:10:21;;;;;;;106.60;45.25;;;4.50;99.90;;;;;;5007266;28;20218;-84
2020/12/10 05:12:49;;;;;;;112.32;43.67;;;4.50;99.90;;;;;;5004626;28;20198;-84
2020/12/10 05:15:30;;;;;;;92.50;40.60;;;4.30;99.90;;;;;;5008135;28;20202;-84
2020/12/10 05:18:04;;;;;;;86.60;41.58;;;4.60;99.90;;;;;;5011583;28;20205;-84
2020/12/10 05:20:43;;;;;;;89.80;41.80;;;4.70;99.90;;;;;;5008017;28;20264;-85
2020/12/10 05:23:10;;;;;;;83.50;39.60;;;4.90;99.90;;;;;;5006280;28;20229;-84
2020/12/10 05:25:45;;;;;;;88.95;42.45;;;5.00;99.90;;;;;;5007143;28;20243;-84
2020/12/10 05:28:13;;;;;;;80.95;41.03;;;5.10;99.90;;;;;;5005717;28;20216;-84
2020/12/10 05:30:43;;;;;;;89.53;41.20;;;5.10;99.90;;;;;;5009252;28;20268;-83
2020/12/10 05:33:11;;;;;;;90.10;40.58;;;5.10;99.90;;;;;;5010906;28;20201;-83
2020/12/10 05:35:37;;;;;;;91.28;45.00;;;5.00;99.90;;;;;;5005863;28;20202;-83
2020/12/10 05:38:10;;;;;;;81.03;40.60;;;5.00;99.90;;;;;;5005237;28;20213;-84
2020/12/10 05:40:37;;;;;;;92.90;42.08;;;5.00;99.90;;;;;;5007700;28;20233;-84
2020/12/10 05:43:26;;;;;;;95.63;45.72;;;5.00;99.90;;;;;;5002428;28;20461;-83
2020/12/10 05:46:37;;;;;;;115.10;42.63;;;5.00;99.90;;;;;;5003452;28;20194;-83
2020/12/10 05:49:35;;;;;;;99.18;41.15;;;4.90;99.90;;;;;;5007111;28;20230;-83
2020/12/10 05:52:07;;;;;;;88.95;43.72;;;4.90;99.90;;;;;;5011131;28;20225;-83
2020/12/10 05:54:35;;;;;;;93.80;44.78;;;4.80;99.90;;;;;;5009736;28;20205;-84
2020/12/10 05:57:04;;;;;;;111.75;46.85;;;4.80;99.90;;;;;;5010692;28;20202;-84
2020/12/10 05:59:32;;;;;;;105.78;44.75;;;4.80;99.90;;;;;;5008903;28;20221;-83
2020/12/10 06:02:02;;;;;;;96.97;42.80;;;4.80;99.90;;;;;;5010041;28;20286;-83
2020/12/10 06:04:29;;;;;;;94.97;42.92;;;4.90;99.90;;;;;;5009504;28;20233;-84
2020/12/10 06:06:58;;;;;;;120.18;48.30;;;4.80;99.90;;;;;;5010148;28;20193;-84
2020/12/10 06:09:32;;;;;;;99.63;44.50;;;4.80;99.90;;;;;;5010660;28;20339;-85
2020/12/10 06:12:03;;;;;;;110.25;45.75;;;4.70;99.90;;;;;;5010055;28;20229;-86
2020/12/10 06:14:30;;;;;;;103.20;45.33;;;4.70;99.90;;;;;;5011096;28;20211;-84
2020/12/10 06:17:08;;;;;;;103.47;46.65;;;4.70;99.90;;;;;;5009490;28;20208;-85
2020/12/10 06:19:35;;;;;;;90.10;45.30;;;4.70;99.90;;;;;;5008324;28;20244;-84
2020/12/10 06:22:23;;;;;;;91.80;42.90;;;4.80;99.90;;;;;;5007736;28;20281;-84
2020/12/10 06:24:50;;;;;;;105.85;44.47;;;4.80;99.90;;;;;;5006449;28;20217;-85
2020/12/10 06:27:22;;;;;;;107.13;44.95;;;4.90;99.90;;;;;;5006796;28;20205;-85
2020/12/10 06:29:49;;;;;;;101.60;43.67;;;5.00;99.90;;;;;;5007578;28;20241;-83
2020/12/10 06:32:17;;;;;;;94.75;44.58;;;4.90;99.90;;;;;;5007973;28;20217;-84
2020/12/10 06:34:47;;;;;;;90.78;41.38;;;5.00;99.90;;;;;;5009212;28;20190;-83
2020/12/10 06:37:25;;;;;;;94.05;43.95;;;5.10;99.90;;;;;;5009686;28;20213;-85
2020/12/10 06:39:57;;;;;;;79.18;40.50;;;5.10;99.90;;;;;;5010197;28;20225;-86
2020/12/10 06:42:24;;;;;;;98.35;43.22;;;5.20;99.90;;;;;;5007333;28;20249;-85
2020/12/10 06:44:51;;;;;;;89.18;43.58;;;5.30;99.90;;;;;;5005482;28;20566;-85
2020/12/10 06:47:19;;;;;;;88.93;42.33;;;5.30;99.90;;;;;;5005516;28;20229;-85
2020/12/10 06:49:46;;;;;;;73.97;39.25;;;5.30;99.90;;;;;;5007391;28;20217;-84
2020/12/10 06:52:15;;;;;;;98.20;44.85;;;5.40;99.90;;;;;;5005071;28;20286;-85
2020/12/10 06:55:04;;;;;;;90.25;42.90;;;5.50;99.90;;;;;;5007128;28;20277;-83
2020/12/10 06:57:52;;;;;;;82.93;39.72;;;5.40;99.90;;;;;;5005705;28;20201;-83
2020/12/10 07:00:42;;;;;;;113.25;47.30;;;5.30;99.90;;;;;;5004785;28;20236;-84
2020/12/10 07:03:13;;;;;;;84.30;38.80;;;5.30;99.90;;;;;;5000775;28;20225;-85
2020/12/10 07:05:39;;;;;;;86.88;37.92;;;5.40;99.90;;;;;;5005498;28;20225;-84
2020/12/10 07:08:08;;;;;;;75.40;39.50;;;5.40;99.90;;;;;;5004546;28;20205;-85
2020/12/10 07:10:39;;;;;;;96.82;43.28;;;5.50;99.90;;;;;;5005296;28;20316;-83
2020/12/10 07:13:06;;;;;;;89.97;40.55;;;5.40;99.90;;;;;;5006348;28;20224;-85
2020/12/10 07:15:45;;;;;;;92.03;46.75;;;5.40;99.90;;;;;;5006470;28;20206;-85
2020/12/10 07:18:12;;;;;;;79.20;37.00;;;5.40;99.90;;;;;;5006972;28;20269;-84
2020/12/10 07:21:15;;;;;;;82.97;40.42;;;5.40;99.90;;;;;;5008821;28;20226;-85
2020/12/10 07:23:42;;;;;;;84.50;38.85;;;5.40;99.90;;;;;;5006520;28;20225;-86
2020/12/10 07:26:29;;;;;;;90.25;42.47;;;5.40;99.90;;;;;;5014041;28;20200;-83
2020/12/10 07:39:19;;;;;;;91.53;41.30;;;5.40;99.90;;;;;;4923166;29;20215;-86
2020/12/10 07:45:11;;;;;;;95.07;41.78;;;5.40;99.90;;;;;;4888092;29;20219;-85
2020/12/10 07:47:37;;;;;;;93.00;38.65;;;5.40;99.90;;;;;;4914438;29;20218;-85
2020/12/10 07:50:20;;;;;;;98.18;44.55;;;5.30;99.90;;;;;;4963845;28;20227;-85
2020/12/10 07:52:48;;;;;;;91.55;38.97;;;5.40;99.90;;;;;;4964471;28;20194;-85
2020/12/10 07:55:22;;;;;;;91.57;39.65;;;5.40;99.90;;;;;;4964373;29;20231;-85
2020/12/10 07:57:58;;;;;;;94.55;41.50;;;5.40;99.90;;;;;;4964777;29;20198;-84
2020/12/10 08:00:27;;;;;;;90.22;42.38;;;5.40;99.90;;;;;;4966774;28;20742;-84
2020/12/10 08:03:18;;;;;;;108.75;42.58;;;5.50;99.90;;;;;;4967135;29;20206;-83
2020/12/10 08:05:58;;;;;;;99.50;43.13;;;5.40;99.90;;;;;;4953170;29;20215;-85
2020/12/10 08:08:33;;;;;;;95.78;39.08;;;5.40;99.90;;;;;;4965113;29;20203;-85
2020/12/10 08:11:22;;;;;;;84.20;40.22;;;5.50;99.90;;;;;;4965184;28;20230;-86
2020/12/10 08:14:23;;;;;;;100.28;43.05;;;5.50;99.90;;;;;;4960979;28;20233;-87
2020/12/10 08:16:50;;;;;;;94.22;42.33;;;5.60;99.90;;;;;;4966306;29;20262;-86
2020/12/10 08:19:19;;;;;;;102.40;41.92;;;5.50;99.90;;;;;;4963341;28;20226;-86
2020/12/10 08:21:46;;;;;;;99.35;43.97;;;5.60;99.90;;;;;;4971219;29;20725;-86
2020/12/10 08:24:13;;;;;;;118.10;46.13;;;5.60;99.90;;;;;;4974382;29;20250;-86
2020/12/10 08:26:42;;;;;;;114.85;44.38;;;5.50;99.90;;;;;;4975671;29;20202;-86
2020/12/10 08:29:15;;;;;;;109.32;46.42;;;5.40;99.90;;;;;;4972917;28;20251;-88
2020/12/10 08:31:41;;;;;;;131.05;51.97;;;5.40;99.90;;;;;;4978679;28;20203;-86
2020/12/10 08:37:38;;;;;;;113.32;45.28;;;5.40;99.90;;;;;;4978653;28;20207;-88
2020/12/10 08:40:05;;;;;;;117.30;47.10;;;5.40;99.90;;;;;;4978268;28;20225;-86
2020/12/10 08:42:33;;;;;;;114.20;41.10;;;5.40;99.90;;;;;;4978290;28;20190;-84
2020/12/10 08:44:59;;;;;;;107.82;43.50;;;5.50;99.90;;;;;;4978149;28;20214;-84
2020/12/10 08:47:31;;;;;;;91.38;43.13;;;5.60;99.90;;;;;;4977648;28;20250;-84
2020/12/10 08:50:24;;;;;;;90.50;41.65;;;5.50;99.90;;;;;;4962556;28;20219;-85
2020/12/10 08:53:05;;;;;;;73.95;34.03;;;5.70;99.90;;;;;;4966810;29;20210;-86
2020/12/10 08:55:59;;;;;;;80.05;39.67;;;5.70;99.90;;;;;;4966576;29;20194;-88
2020/12/10 08:58:29;;;;;;;75.85;36.35;;;5.70;99.90;;;;;;4965053;29;20217;-87
2020/12/10 09:01:03;;;;;;;94.07;39.05;;;5.70;99.90;;;;;;4964987;28;20238;-87
2020/12/10 09:03:30;;;;;;;106.75;42.72;;;5.60;99.90;;;;;;4963961;28;20645;-85
2020/12/10 09:05:56;;;;;;;113.63;43.28;;;5.60;99.90;;;;;;4965293;29;20215;-84
2020/12/10 09:08:23;;;;;;;106.55;43.35;;;5.60;99.90;;;;;;4965425;28;20207;-87
2020/12/10 09:10:50;;;;;;;99.53;40.92;;;5.60;99.90;;;;;;4966024;28;20215;-83
2020/12/10 09:13:16;;;;;;;96.07;43.78;;;5.60;99.90;;;;;;4967303;29;20209;-84
2020/12/10 09:15:45;;;;;;;113.45;44.80;;;5.60;99.90;;;;;;4969534;29;20295;-84
2020/12/10 09:18:12;;;;;;;100.45;39.80;;;5.60;99.90;;;;;;4971145;29;20221;-86
2020/12/10 09:20:40;;;;;;;115.85;43.42;;;5.70;99.90;;;;;;4970762;28;20234;-84
2020/12/10 09:23:06;;;;;;;97.25;43.10;;;5.70;99.90;;;;;;4972005;29;20245;-84
2020/12/10 09:25:33;;;;;;;80.45;39.03;;;5.50;99.90;;;;;;4973002;29;20225;-85
2020/12/10 09:28:00;;;;;;;97.03;38.42;;;5.70;99.90;;;;;;4971303;29;20262;-85
2020/12/10 09:30:27;;;;;;;113.20;45.10;;;5.60;99.90;;;;;;4968103;28;20250;-85
2020/12/10 09:32:54;;;;;;;98.47;43.33;;;5.70;99.90;;;;;;4967319;29;20222;-84
2020/12/10 09:35:21;;;;;;;77.25;36.75;;;5.70;99.90;;;;;;4966701;29;20213;-84
2020/12/10 09:37:48;;;;;;;86.35;37.13;;;5.70;99.90;;;;;;4968409;29;20203;-83
2020/12/10 09:40:14;;;;;;;74.13;37.65;;;5.70;99.90;;;;;;4966792;28;20603;-83
2020/12/10 09:42:42;;;;;;;74.28;43.13;;;5.60;99.90;;;;;;4966020;29;20233;-84
2020/12/10 09:45:09;;;;;;;81.25;40.58;;;5.70;99.90;;;;;;4968569;29;20246;-84
2020/12/10 09:47:36;;;;;;;85.90;37.00;;;5.70;99.90;;;;;;4967444;29;20199;-82
2020/12/10 09:50:06;;;;;;;82.75;35.78;;;5.70;99.90;;;;;;4970991;28;20235;-85
2020/12/10 09:52:35;;;;;;;62.92;33.20;;;5.70;99.90;;;;;;4979562;29;20215;-84
2020/12/10 09:55:08;;;;;;;67.82;33.78;;;5.80;99.90;;;;;;4980319;28;20215;-83
2020/12/10 09:57:35;;;;;;;56.20;31.35;;;5.90;99.90;;;;;;4979972;28;20207;-83
2020/12/10 10:00:05;;;;;;;57.97;28.70;;;5.90;99.90;;;;;;4974419;28;20309;-83
2020/12/10 10:02:32;;;;;;;56.55;29.67;;;5.90;99.90;;;;;;4965846;28;20218;-85
2020/12/10 10:04:58;;;;;;;52.88;30.17;;;5.90;99.90;;;;;;4967049;29;20586;-83
2020/12/10 10:07:26;;;;;;;44.00;24.95;;;5.90;99.90;;;;;;4966885;29;20214;-83
2020/12/10 10:09:53;;;;;;;50.50;27.45;;;6.00;99.90;;;;;;4967631;28;20306;-85
2020/12/10 10:12:21;;;;;;;46.72;25.40;;;6.00;99.90;;;;;;4967262;29;20210;-84
2020/12/10 10:14:48;;;;;;;57.55;29.33;;;6.00;99.90;;;;;;4966299;29;20399;-84
2020/12/10 10:17:15;;;;;;;48.22;26.27;;;6.00;99.90;;;;;;4967641;29;20687;-84
2020/12/10 10:19:42;;;;;;;52.38;26.05;;;6.00;99.90;;;;;;4966029;28;20223;-84
2020/12/10 10:22:09;;;;;;;63.70;28.65;;;6.10;99.90;;;;;;4965761;28;20220;-84
2020/12/10 10:24:39;;;;;;;52.08;27.17;;;6.00;99.90;;;;;;4965424;29;20236;-84
2020/12/10 10:27:06;;;;;;;46.20;25.85;;;6.00;99.90;;;;;;4966005;29;20202;-84
2020/12/10 10:29:32;;;;;;;55.42;26.95;;;6.00;99.90;;;;;;4965625;28;20611;-84
2020/12/10 10:31:59;;;;;;;47.28;25.35;;;6.00;99.90;;;;;;4966373;29;20517;-85
2020/12/10 10:34:26;;;;;;;41.55;24.67;;;6.10;99.90;;;;;;4965682;29;20690;-85
2020/12/10 10:36:52;;;;;;;44.75;26.55;;;6.10;99.90;;;;;;4965593;29;20207;-86
2020/12/10 10:39:21;;;;;;;53.22;26.17;;;6.10;99.90;;;;;;4964962;28;20227;-84
2020/12/10 10:41:49;;;;;;;52.28;27.52;;;6.10;99.90;;;;;;4966659;29;20207;-85
2020/12/10 10:44:17;;;;;;;50.35;28.67;;;6.20;99.90;;;;;;4966158;29;20231;-85
2020/12/10 10:46:44;;;;;;;43.30;25.25;;;6.10;99.90;;;;;;4965577;29;20616;-85
2020/12/10 10:49:12;;;;;;;44.58;24.60;;;6.10;99.90;;;;;;4964431;28;20234;-85
2020/12/10 10:51:39;;;;;;;42.05;23.75;;;6.10;99.90;;;;;;4965722;29;20222;-85
2020/12/10 10:54:06;;;;;;;32.42;23.35;;;6.20;99.90;;;;;;4965716;29;20213;-84
2020/12/10 10:56:32;;;;;;;48.10;27.77;;;6.20;99.90;;;;;;4967450;29;20217;-85
2020/12/10 10:59:00;;;;;;;35.60;21.70;;;6.20;99.90;;;;;;4964531;28;20270;-84
2020/12/10 11:01:28;;;;;;;53.97;28.88;;;6.20;99.90;;;;;;4965504;29;20233;-84
2020/12/10 11:03:55;;;;;;;57.83;25.63;;;6.30;99.90;;;;;;4967110;29;20226;-86
2020/12/10 11:06:22;;;;;;;45.28;24.27;;;6.20;99.90;;;;;;4969262;29;20255;-84
2020/12/10 11:08:49;;;;;;;46.17;24.60;;;6.30;99.90;;;;;;4966083;28;20203;-85
2020/12/10 11:11:18;;;;;;;43.67;22.38;;;6.30;99.90;;;;;;4965303;29;20215;-84
2020/12/10 11:13:45;;;;;;;38.75;22.83;;;6.30;99.90;;;;;;4964982;28;20214;-85
2020/12/10 11:16:13;;;;;;;44.47;24.05;;;6.30;99.90;;;;;;4967014;29;20262;-85
2020/12/10 11:18:40;;;;;;;42.80;25.52;;;6.20;99.90;;;;;;4965329;29;20207;-85
2020/12/10 11:21:07;;;;;;;49.75;26.88;;;6.20;99.90;;;;;;4965204;28;20227;-85
2020/12/10 11:23:33;;;;;;;37.78;22.33;;;6.20;99.90;;;;;;4965948;29;20237;-85
2020/12/10 11:26:00;;;;;;;39.95;24.55;;;6.30;99.90;;;;;;4967460;29;20210;-84
2020/12/10 11:28:28;;;;;;;44.95;24.00;;;6.30;99.90;;;;;;4964742;29;20219;-84
2020/12/10 11:30:55;;;;;;;45.53;24.95;;;6.30;99.90;;;;;;4966069;28;20246;-84
2020/12/10 11:33:22;;;;;;;35.20;22.33;;;6.30;99.90;;;;;;4965466;29;20290;-84
2020/12/10 11:35:49;;;;;;;33.03;21.45;;;6.40;99.90;;;;;;4964754;29;20211;-84
2020/12/10 11:38:16;;;;;;;27.05;20.02;;;6.30;99.90;;;;;;4964324;29;20206;-84
2020/12/10 11:40:42;;;;;;;35.42;23.30;;;6.30;99.90;;;;;;4963942;28;20234;-84
2020/12/10 11:43:09;;;;;;;32.05;23.00;;;6.30;99.90;;;;;;4963879;29;20214;-85
2020/12/10 11:45:37;;;;;;;34.40;20.60;;;6.30;99.90;;;;;;4963316;29;20623;-85
2020/12/10 11:48:04;;;;;;;34.97;20.10;;;6.40;99.90;;;;;;4963342;29;20270;-85
2020/12/10 11:50:32;;;;;;;31.92;21.70;;;6.40;99.90;;;;;;4964811;28;20231;-85
2020/12/10 11:52:59;;;;;;;34.53;20.70;;;6.40;99.90;;;;;;4965356;29;20208;-83
2020/12/10 11:55:26;;;;;;;30.42;21.73;;;6.40;99.90;;;;;;4963546;29;20734;-84
2020/12/10 11:57:54;;;;;;;32.10;21.73;;;6.40;99.90;;;;;;4964436;29;20585;-85
2020/12/10 12:00:21;;;;;;;26.08;18.23;;;6.30;99.90;;;;;;4967543;28;20230;-84
2020/12/10 12:02:48;;;;;;;29.58;18.88;;;6.40;99.90;;;;;;4966536;29;20203;-84
2020/12/10 12:05:15;;;;;;;34.63;20.48;;;6.40;99.90;;;;;;4963868;29;20342;-83
2020/12/10 12:07:44;;;;;;;30.23;19.63;;;6.50;99.90;;;;;;4964009;29;20554;-84
2020/12/10 12:10:11;;;;;;;25.10;17.55;;;6.50;99.90;;;;;;4963038;28;20226;-84
2020/12/10 12:12:38;;;;;;;29.80;20.98;;;6.50;99.90;;;;;;4964086;29;20199;-85
2020/12/10 12:15:06;;;;;;;32.88;21.33;;;6.40;99.90;;;;;;4973600;29;20214;-84
2020/12/10 12:17:34;;;;;;;34.15;20.83;;;6.20;99.90;;;;;;4968564;29;20218;-84
2020/12/10 12:20:01;;;;;;;33.08;22.35;;;6.30;99.90;;;;;;4962931;28;20235;-85
2020/12/10 12:22:27;;;;;;;29.08;20.67;;;6.20;99.90;;;;;;4962854;29;20218;-85
2020/12/10 12:24:55;;;;;;;31.90;21.20;;;6.30;99.90;;;;;;4963902;28;20228;-83
2020/12/10 12:27:22;;;;;;;30.48;21.02;;;6.20;99.90;;;;;;4962975;29;20211;-85
2020/12/10 12:29:48;;;;;;;30.50;20.08;;;6.20;99.90;;;;;;4971248;28;20223;-85
2020/12/10 12:32:15;;;;;;;37.60;22.60;;;6.20;99.90;;;;;;4977438;28;20203;-85
2020/12/10 12:34:41;;;;;;;33.20;21.05;;;6.20;99.90;;;;;;4977669;28;20293;-84
2020/12/10 12:37:08;;;;;;;26.73;20.00;;;6.20;99.90;;;;;;4977686;28;20194;-85
2020/12/10 12:39:35;;;;;;;39.33;20.70;;;6.20;99.90;;;;;;4977595;28;20302;-85
2020/12/10 12:42:05;;;;;;;34.63;20.83;;;6.20;99.90;;;;;;4969335;28;20605;-84
2020/12/10 12:44:31;;;;;;;30.90;21.70;;;6.20;99.90;;;;;;4964963;29;20233;-84
2020/12/10 12:46:58;;;;;;;27.73;21.05;;;6.20;99.90;;;;;;4963124;29;20214;-84
2020/12/10 12:49:25;;;;;;;33.20;21.58;;;6.20;99.90;;;;;;4966117;28;20262;-85
2020/12/10 12:51:53;;;;;;;31.83;22.00;;;6.20;99.90;;;;;;4967711;29;20279;-85
2020/12/10 12:54:20;;;;;;;32.20;21.85;;;6.30;99.90;;;;;;4968434;29;20235;-83
2020/12/10 12:56:47;;;;;;;32.75;20.52;;;6.20;99.90;;;;;;4968140;29;20265;-84
2020/12/10 12:59:15;;;;;;;33.90;21.85;;;6.30;99.90;;;;;;4968114;28;20566;-82
2020/12/10 13:01:42;;;;;;;29.30;22.27;;;6.30;99.90;;;;;;4968752;29;20207;-83